<?xml version="1.0" encoding="utf-8"?>
<gpx xmlns:xsi="http://www.w3.org/2001/XMLSchema-instance" xmlns:xsd="http://www.w3.org/2001/XMLSchema" version="1.1" creator="Shapelink.com" xmlns="http://www.topografix.com/GPX/1/1" xmlns:gpxtpx="http://www.garmin.com/xmlschemas/TrackPointExtension/v1">
  <metadata>
    <name>Cykling 2.87 km, 2014-04-01</name>
    <desc></desc>
    <author><name>Alexander Engvall</name></author> 
    <time>2014-04-01T09:28:06Z</time>
  </metadata>
  <trk>
    <name>Cykling 2.87 km, 2014-04-01</name>
    <trkseg>
      <trkpt lat="59.314161298544" lon="18.064869195754">
        <ele>14.2</ele>
        <time>2014-04-01T09:28:06Z</time>
      </trkpt>
      <trkpt lat="59.314173284661" lon="18.064837093077">
        <ele>15</ele>
        <time>2014-04-01T09:28:07Z</time>
      </trkpt>
      <trkpt lat="59.314181415104" lon="18.064802978744">
        <ele>17</ele>
        <time>2014-04-01T09:28:08Z</time>
      </trkpt>
      <trkpt lat="59.31418594133" lon="18.064785292935">
        <ele>19</ele>
        <time>2014-04-01T09:28:09Z</time>
      </trkpt>
      <trkpt lat="59.314203459501" lon="18.064781772537">
        <ele>21</ele>
        <time>2014-04-01T09:28:10Z</time>
      </trkpt>
      <trkpt lat="59.314211170849" lon="18.06476559547">
        <ele>21</ele>
        <time>2014-04-01T09:28:11Z</time>
      </trkpt>
      <trkpt lat="59.314234723988" lon="18.064748328756">
        <ele>21</ele>
        <time>2014-04-01T09:28:12Z</time>
      </trkpt>
      <trkpt lat="59.314268754502" lon="18.06475302262">
        <ele>21</ele>
        <time>2014-04-01T09:28:13Z</time>
      </trkpt>
      <trkpt lat="59.314351316217" lon="18.064687727619">
        <ele>21</ele>
        <time>2014-04-01T09:28:15Z</time>
      </trkpt>
      <trkpt lat="59.314395405011" lon="18.064648332689">
        <ele>21</ele>
        <time>2014-04-01T09:28:16Z</time>
      </trkpt>
      <trkpt lat="59.314493305603" lon="18.064551773201">
        <ele>21</ele>
        <time>2014-04-01T09:28:19Z</time>
      </trkpt>
      <trkpt lat="59.314728920812" lon="18.064501314163">
        <ele>21</ele>
        <time>2014-04-01T09:28:23Z</time>
      </trkpt>
      <trkpt lat="59.314873508587" lon="18.064472396608">
        <ele>21</ele>
        <time>2014-04-01T09:28:25Z</time>
      </trkpt>
      <trkpt lat="59.315034441067" lon="18.064376088577">
        <ele>21</ele>
        <time>2014-04-01T09:28:28Z</time>
      </trkpt>
      <trkpt lat="59.315086325028" lon="18.064359827691">
        <ele>21</ele>
        <time>2014-04-01T09:28:29Z</time>
      </trkpt>
      <trkpt lat="59.315193613348" lon="18.064311547947">
        <ele>21</ele>
        <time>2014-04-01T09:28:32Z</time>
      </trkpt>
      <trkpt lat="59.315209119863" lon="18.064298807459">
        <ele>20</ele>
        <time>2014-04-01T09:28:33Z</time>
      </trkpt>
      <trkpt lat="59.315225045473" lon="18.064292353396">
        <ele>18.8</ele>
        <time>2014-04-01T09:28:34Z</time>
      </trkpt>
      <trkpt lat="59.315240216712" lon="18.0642769307">
        <ele>17.6</ele>
        <time>2014-04-01T09:28:35Z</time>
      </trkpt>
      <trkpt lat="59.315261842014" lon="18.064255640674">
        <ele>16.4</ele>
        <time>2014-04-01T09:28:36Z</time>
      </trkpt>
      <trkpt lat="59.31528816118" lon="18.064241642901">
        <ele>15.2</ele>
        <time>2014-04-01T09:28:37Z</time>
      </trkpt>
      <trkpt lat="59.315401903563" lon="18.064101581352">
        <ele>15.2</ele>
        <time>2014-04-01T09:28:41Z</time>
      </trkpt>
      <trkpt lat="59.315577169092" lon="18.063941570881">
        <ele>15.2</ele>
        <time>2014-04-01T09:28:45Z</time>
      </trkpt>
      <trkpt lat="59.31563433365" lon="18.063924639443">
        <ele>15.2</ele>
        <time>2014-04-01T09:28:46Z</time>
      </trkpt>
      <trkpt lat="59.315799540899" lon="18.063859763537">
        <ele>15.2</ele>
        <time>2014-04-01T09:28:49Z</time>
      </trkpt>
      <trkpt lat="59.316080083092" lon="18.063784410256">
        <ele>15.2</ele>
        <time>2014-04-01T09:28:54Z</time>
      </trkpt>
      <trkpt lat="59.316326846228" lon="18.063621549939">
        <ele>15.2</ele>
        <time>2014-04-01T09:28:59Z</time>
      </trkpt>
      <trkpt lat="59.316479732084" lon="18.063565558847">
        <ele>14.8</ele>
        <time>2014-04-01T09:29:02Z</time>
      </trkpt>
      <trkpt lat="59.31653203514" lon="18.063552566902">
        <ele>14.4</ele>
        <time>2014-04-01T09:29:03Z</time>
      </trkpt>
      <trkpt lat="59.316589367336" lon="18.063520799501">
        <ele>14</ele>
        <time>2014-04-01T09:29:04Z</time>
      </trkpt>
      <trkpt lat="59.316640664564" lon="18.06350998685">
        <ele>13.6</ele>
        <time>2014-04-01T09:29:05Z</time>
      </trkpt>
      <trkpt lat="59.316695230733" lon="18.06352591246">
        <ele>13.2</ele>
        <time>2014-04-01T09:29:06Z</time>
      </trkpt>
      <trkpt lat="59.316739319527" lon="18.063498419828">
        <ele>13.2</ele>
        <time>2014-04-01T09:29:07Z</time>
      </trkpt>
      <trkpt lat="59.316825569278" lon="18.063421306348">
        <ele>13.2</ele>
        <time>2014-04-01T09:29:09Z</time>
      </trkpt>
      <trkpt lat="59.317105608557" lon="18.063247381923">
        <ele>13.2</ele>
        <time>2014-04-01T09:29:15Z</time>
      </trkpt>
      <trkpt lat="59.317206442814" lon="18.063212597038">
        <ele>13.2</ele>
        <time>2014-04-01T09:29:17Z</time>
      </trkpt>
      <trkpt lat="59.317351282046" lon="18.06317219628">
        <ele>13.2</ele>
        <time>2014-04-01T09:29:20Z</time>
      </trkpt>
      <trkpt lat="59.317420348902" lon="18.063227349182">
        <ele>13.2</ele>
        <time>2014-04-01T09:29:21Z</time>
      </trkpt>
      <trkpt lat="59.317504000264" lon="18.063435136483">
        <ele>13.2</ele>
        <time>2014-04-01T09:29:24Z</time>
      </trkpt>
      <trkpt lat="59.317509029404" lon="18.063550136151">
        <ele>13.2</ele>
        <time>2014-04-01T09:29:26Z</time>
      </trkpt>
      <trkpt lat="59.317531073801" lon="18.063618616274">
        <ele>13.2</ele>
        <time>2014-04-01T09:29:28Z</time>
      </trkpt>
      <trkpt lat="59.317636685741" lon="18.063541586613">
        <ele>13.2</ele>
        <time>2014-04-01T09:29:31Z</time>
      </trkpt>
      <trkpt lat="59.317689407892" lon="18.063514596895">
        <ele>13.2</ele>
        <time>2014-04-01T09:29:32Z</time>
      </trkpt>
      <trkpt lat="59.317891746958" lon="18.063412337715">
        <ele>13.2</ele>
        <time>2014-04-01T09:29:36Z</time>
      </trkpt>
      <trkpt lat="59.317934075553" lon="18.063398004666">
        <ele>13.2</ele>
        <time>2014-04-01T09:29:37Z</time>
      </trkpt>
      <trkpt lat="59.318090565626" lon="18.063347880904">
        <ele>13.2</ele>
        <time>2014-04-01T09:29:40Z</time>
      </trkpt>
      <trkpt lat="59.318135073515" lon="18.063320472091">
        <ele>13.2</ele>
        <time>2014-04-01T09:29:41Z</time>
      </trkpt>
      <trkpt lat="59.318181844517" lon="18.063272108528">
        <ele>13.2</ele>
        <time>2014-04-01T09:29:42Z</time>
      </trkpt>
      <trkpt lat="59.318322576618" lon="18.063164820208">
        <ele>13.2</ele>
        <time>2014-04-01T09:29:45Z</time>
      </trkpt>
      <trkpt lat="59.318587025563" lon="18.063014700379">
        <ele>13.2</ele>
        <time>2014-04-01T09:29:51Z</time>
      </trkpt>
      <trkpt lat="59.318611500711" lon="18.06298360353">
        <ele>13.2</ele>
        <time>2014-04-01T09:29:52Z</time>
      </trkpt>
      <trkpt lat="59.318782994385" lon="18.063279987514">
        <ele>12.8</ele>
        <time>2014-04-01T09:29:55Z</time>
      </trkpt>
      <trkpt lat="59.318811576664" lon="18.063351652759">
        <ele>12.4</ele>
        <time>2014-04-01T09:29:56Z</time>
      </trkpt>
      <trkpt lat="59.318843092608" lon="18.063426503126">
        <ele>12</ele>
        <time>2014-04-01T09:29:57Z</time>
      </trkpt>
      <trkpt lat="59.318870333783" lon="18.063513171972">
        <ele>11.6</ele>
        <time>2014-04-01T09:29:58Z</time>
      </trkpt>
      <trkpt lat="59.318897994053" lon="18.063563798648">
        <ele>11.2</ele>
        <time>2014-04-01T09:29:59Z</time>
      </trkpt>
      <trkpt lat="59.318930599644" lon="18.06360721689">
        <ele>11.2</ele>
        <time>2014-04-01T09:30:00Z</time>
      </trkpt>
      <trkpt lat="59.319127574294" lon="18.063779297297">
        <ele>11.2</ele>
        <time>2014-04-01T09:30:04Z</time>
      </trkpt>
      <trkpt lat="59.319191947286" lon="18.064158242996">
        <ele>11.2</ele>
        <time>2014-04-01T09:30:07Z</time>
      </trkpt>
      <trkpt lat="59.319208962543" lon="18.064316660906">
        <ele>10.8</ele>
        <time>2014-04-01T09:30:08Z</time>
      </trkpt>
      <trkpt lat="59.319217176805" lon="18.064486562019">
        <ele>10.4</ele>
        <time>2014-04-01T09:30:09Z</time>
      </trkpt>
      <trkpt lat="59.319226145438" lon="18.064652858915">
        <ele>10</ele>
        <time>2014-04-01T09:30:10Z</time>
      </trkpt>
      <trkpt lat="59.319225558705" lon="18.064821586562">
        <ele>9.4</ele>
        <time>2014-04-01T09:30:11Z</time>
      </trkpt>
      <trkpt lat="59.319209465457" lon="18.06502711075">
        <ele>9</ele>
        <time>2014-04-01T09:30:12Z</time>
      </trkpt>
      <trkpt lat="59.31927207825" lon="18.065907964621">
        <ele>9</ele>
        <time>2014-04-01T09:30:17Z</time>
      </trkpt>
      <trkpt lat="59.319374840344" lon="18.066908679662">
        <ele>9</ele>
        <time>2014-04-01T09:30:23Z</time>
      </trkpt>
      <trkpt lat="59.319466035416" lon="18.067609993235">
        <ele>9</ele>
        <time>2014-04-01T09:30:28Z</time>
      </trkpt>
      <trkpt lat="59.31950677145" lon="18.067997069377">
        <ele>9</ele>
        <time>2014-04-01T09:30:32Z</time>
      </trkpt>
      <trkpt lat="59.319513644608" lon="18.068166635214">
        <ele>9</ele>
        <time>2014-04-01T09:30:42Z</time>
      </trkpt>
      <trkpt lat="59.319529737856" lon="18.068467293967">
        <ele>9</ele>
        <time>2014-04-01T09:30:46Z</time>
      </trkpt>
      <trkpt lat="59.31958556131" lon="18.068771724575">
        <ele>9</ele>
        <time>2014-04-01T09:30:49Z</time>
      </trkpt>
      <trkpt lat="59.319604588223" lon="18.068845401476">
        <ele>8.6</ele>
        <time>2014-04-01T09:30:50Z</time>
      </trkpt>
      <trkpt lat="59.319624704783" lon="18.068921592947">
        <ele>8.2</ele>
        <time>2014-04-01T09:30:51Z</time>
      </trkpt>
      <trkpt lat="59.319642222954" lon="18.068996862409">
        <ele>7.8</ele>
        <time>2014-04-01T09:30:52Z</time>
      </trkpt>
      <trkpt lat="59.319649515207" lon="18.069096355562">
        <ele>7.4</ele>
        <time>2014-04-01T09:30:53Z</time>
      </trkpt>
      <trkpt lat="59.319654376709" lon="18.069196183991">
        <ele>7</ele>
        <time>2014-04-01T09:30:54Z</time>
      </trkpt>
      <trkpt lat="59.31967189488" lon="18.069295760963">
        <ele>7</ele>
        <time>2014-04-01T09:30:55Z</time>
      </trkpt>
      <trkpt lat="59.319738530985" lon="18.069722818768">
        <ele>6.6</ele>
        <time>2014-04-01T09:30:59Z</time>
      </trkpt>
      <trkpt lat="59.319755881518" lon="18.069822563378">
        <ele>6.2</ele>
        <time>2014-04-01T09:31:00Z</time>
      </trkpt>
      <trkpt lat="59.319770633662" lon="18.069929767879">
        <ele>5.6</ele>
        <time>2014-04-01T09:31:01Z</time>
      </trkpt>
      <trkpt lat="59.319778847924" lon="18.070037726751">
        <ele>5.2</ele>
        <time>2014-04-01T09:31:02Z</time>
      </trkpt>
      <trkpt lat="59.319785972539" lon="18.070136633171">
        <ele>4.8</ele>
        <time>2014-04-01T09:31:03Z</time>
      </trkpt>
      <trkpt lat="59.319803155434" lon="18.070207627864">
        <ele>4.8</ele>
        <time>2014-04-01T09:31:04Z</time>
      </trkpt>
      <trkpt lat="59.319832994998" lon="18.070208466054">
        <ele>4.8</ele>
        <time>2014-04-01T09:31:05Z</time>
      </trkpt>
      <trkpt lat="59.319908683555" lon="18.070310557596">
        <ele>4.8</ele>
        <time>2014-04-01T09:31:08Z</time>
      </trkpt>
      <trkpt lat="59.320028041811" lon="18.070390856198">
        <ele>4.4</ele>
        <time>2014-04-01T09:31:11Z</time>
      </trkpt>
      <trkpt lat="59.320083529989" lon="18.070375936416">
        <ele>3.8</ele>
        <time>2014-04-01T09:31:12Z</time>
      </trkpt>
      <trkpt lat="59.320130971543" lon="18.070362944471">
        <ele>3.4</ele>
        <time>2014-04-01T09:31:13Z</time>
      </trkpt>
      <trkpt lat="59.320181682038" lon="18.070360597539">
        <ele>3</ele>
        <time>2014-04-01T09:31:14Z</time>
      </trkpt>
      <trkpt lat="59.320235074741" lon="18.070364537032">
        <ele>2.4</ele>
        <time>2014-04-01T09:31:15Z</time>
      </trkpt>
      <trkpt lat="59.320327191822" lon="18.070407619998">
        <ele>2.4</ele>
        <time>2014-04-01T09:31:17Z</time>
      </trkpt>
      <trkpt lat="59.320405981682" lon="18.07057676674">
        <ele>2.4</ele>
        <time>2014-04-01T09:31:19Z</time>
      </trkpt>
      <trkpt lat="59.320457698005" lon="18.070897709691">
        <ele>2.4</ele>
        <time>2014-04-01T09:31:22Z</time>
      </trkpt>
      <trkpt lat="59.320491896157" lon="18.070981696329">
        <ele>2</ele>
        <time>2014-04-01T09:31:23Z</time>
      </trkpt>
      <trkpt lat="59.320549815086" lon="18.071008266952">
        <ele>1.6</ele>
        <time>2014-04-01T09:31:24Z</time>
      </trkpt>
      <trkpt lat="59.320602369599" lon="18.071008266952">
        <ele>1.2</ele>
        <time>2014-04-01T09:31:25Z</time>
      </trkpt>
      <trkpt lat="59.320663054555" lon="18.071013799006">
        <ele>0.8</ele>
        <time>2014-04-01T09:31:26Z</time>
      </trkpt>
      <trkpt lat="59.320722482226" lon="18.071020336888">
        <ele>0.4</ele>
        <time>2014-04-01T09:31:27Z</time>
      </trkpt>
      <trkpt lat="59.320845947613" lon="18.071071215021">
        <ele>0.4</ele>
        <time>2014-04-01T09:31:29Z</time>
      </trkpt>
      <trkpt lat="59.320899424135" lon="18.071141622981">
        <ele>0.4</ele>
        <time>2014-04-01T09:31:30Z</time>
      </trkpt>
      <trkpt lat="59.320944099662" lon="18.07122301123">
        <ele>0</ele>
        <time>2014-04-01T09:31:31Z</time>
      </trkpt>
      <trkpt lat="59.320977459624" lon="18.071346728074">
        <ele>0</ele>
        <time>2014-04-01T09:31:32Z</time>
      </trkpt>
      <trkpt lat="59.320982321126" lon="18.071484358872">
        <ele>0</ele>
        <time>2014-04-01T09:31:33Z</time>
      </trkpt>
      <trkpt lat="59.320985757705" lon="18.071594664676">
        <ele>0</ele>
        <time>2014-04-01T09:31:34Z</time>
      </trkpt>
      <trkpt lat="59.321000174573" lon="18.0716781484">
        <ele>0</ele>
        <time>2014-04-01T09:31:35Z</time>
      </trkpt>
      <trkpt lat="59.321074857302" lon="18.071767667092">
        <ele>0</ele>
        <time>2014-04-01T09:31:37Z</time>
      </trkpt>
      <trkpt lat="59.321115425698" lon="18.071811839705">
        <ele>0</ele>
        <time>2014-04-01T09:31:38Z</time>
      </trkpt>
      <trkpt lat="59.321162867252" lon="18.071878811086">
        <ele>0</ele>
        <time>2014-04-01T09:31:39Z</time>
      </trkpt>
      <trkpt lat="59.321223468389" lon="18.071936646196">
        <ele>0</ele>
        <time>2014-04-01T09:31:40Z</time>
      </trkpt>
      <trkpt lat="59.321295217453" lon="18.071993810754">
        <ele>0</ele>
        <time>2014-04-01T09:31:41Z</time>
      </trkpt>
      <trkpt lat="59.32135665678" lon="18.072039995023">
        <ele>0</ele>
        <time>2014-04-01T09:31:42Z</time>
      </trkpt>
      <trkpt lat="59.321423795799" lon="18.072097830133">
        <ele>0</ele>
        <time>2014-04-01T09:31:43Z</time>
      </trkpt>
      <trkpt lat="59.321490096628" lon="18.072142254203">
        <ele>0</ele>
        <time>2014-04-01T09:31:44Z</time>
      </trkpt>
      <trkpt lat="59.32155530781" lon="18.072196317458">
        <ele>0</ele>
        <time>2014-04-01T09:31:45Z</time>
      </trkpt>
      <trkpt lat="59.321621105725" lon="18.072244681021">
        <ele>0</ele>
        <time>2014-04-01T09:31:46Z</time>
      </trkpt>
      <trkpt lat="59.321689585848" lon="18.072282818666">
        <ele>0</ele>
        <time>2014-04-01T09:31:47Z</time>
      </trkpt>
      <trkpt lat="59.321760245265" lon="18.072308299642">
        <ele>0</ele>
        <time>2014-04-01T09:31:48Z</time>
      </trkpt>
      <trkpt lat="59.321909275447" lon="18.072302516131">
        <ele>0</ele>
        <time>2014-04-01T09:31:50Z</time>
      </trkpt>
      <trkpt lat="59.321988735859" lon="18.07225733769">
        <ele>0</ele>
        <time>2014-04-01T09:31:51Z</time>
      </trkpt>
      <trkpt lat="59.322061742208" lon="18.072177625821">
        <ele>0</ele>
        <time>2014-04-01T09:31:52Z</time>
      </trkpt>
      <trkpt lat="59.322129970874" lon="18.072067487655">
        <ele>0</ele>
        <time>2014-04-01T09:31:53Z</time>
      </trkpt>
      <trkpt lat="59.322191996934" lon="18.07194301644">
        <ele>0</ele>
        <time>2014-04-01T09:31:54Z</time>
      </trkpt>
      <trkpt lat="59.322245724913" lon="18.071806726746">
        <ele>0</ele>
        <time>2014-04-01T09:31:55Z</time>
      </trkpt>
      <trkpt lat="59.322298195607" lon="18.071659792039">
        <ele>0</ele>
        <time>2014-04-01T09:31:56Z</time>
      </trkpt>
      <trkpt lat="59.32233314813" lon="18.071499278654">
        <ele>0</ele>
        <time>2014-04-01T09:31:57Z</time>
      </trkpt>
      <trkpt lat="59.322357204183" lon="18.071323342573">
        <ele>0</ele>
        <time>2014-04-01T09:31:58Z</time>
      </trkpt>
      <trkpt lat="59.322379332399" lon="18.071168109785">
        <ele>0</ele>
        <time>2014-04-01T09:31:59Z</time>
      </trkpt>
      <trkpt lat="59.322417721501" lon="18.070516081784">
        <ele>0</ele>
        <time>2014-04-01T09:32:03Z</time>
      </trkpt>
      <trkpt lat="59.322398778407" lon="18.070178039757">
        <ele>0</ele>
        <time>2014-04-01T09:32:05Z</time>
      </trkpt>
      <trkpt lat="59.322383858625" lon="18.070009395929">
        <ele>0</ele>
        <time>2014-04-01T09:32:06Z</time>
      </trkpt>
      <trkpt lat="59.322367933015" lon="18.069836812608">
        <ele>0</ele>
        <time>2014-04-01T09:32:07Z</time>
      </trkpt>
      <trkpt lat="59.322357539459" lon="18.069665486572">
        <ele>0</ele>
        <time>2014-04-01T09:32:08Z</time>
      </trkpt>
      <trkpt lat="59.322376566372" lon="18.069498938219">
        <ele>0</ele>
        <time>2014-04-01T09:32:09Z</time>
      </trkpt>
      <trkpt lat="59.322449907997" lon="18.069178582001">
        <ele>0</ele>
        <time>2014-04-01T09:32:11Z</time>
      </trkpt>
      <trkpt lat="59.322610002287" lon="18.068755463689">
        <ele>0</ele>
        <time>2014-04-01T09:32:14Z</time>
      </trkpt>
      <trkpt lat="59.322670351967" lon="18.068618335805">
        <ele>0</ele>
        <time>2014-04-01T09:32:15Z</time>
      </trkpt>
      <trkpt lat="59.322922647157" lon="18.06794065919">
        <ele>0</ele>
        <time>2014-04-01T09:32:20Z</time>
      </trkpt>
      <trkpt lat="59.323027588545" lon="18.067730776414">
        <ele>0</ele>
        <time>2014-04-01T09:32:22Z</time>
      </trkpt>
      <trkpt lat="59.323153400864" lon="18.067576800911">
        <ele>0</ele>
        <time>2014-04-01T09:32:24Z</time>
      </trkpt>
      <trkpt lat="59.323431679944" lon="18.067183438344">
        <ele>0</ele>
        <time>2014-04-01T09:32:29Z</time>
      </trkpt>
      <trkpt lat="59.32349152671" lon="18.067116634601">
        <ele>0</ele>
        <time>2014-04-01T09:32:30Z</time>
      </trkpt>
      <trkpt lat="59.323608118939" lon="18.066981434554">
        <ele>0</ele>
        <time>2014-04-01T09:32:32Z</time>
      </trkpt>
      <trkpt lat="59.323665367316" lon="18.066913457345">
        <ele>0</ele>
        <time>2014-04-01T09:32:33Z</time>
      </trkpt>
      <trkpt lat="59.323716580725" lon="18.06683843934">
        <ele>0</ele>
        <time>2014-04-01T09:32:34Z</time>
      </trkpt>
      <trkpt lat="59.323785144667" lon="18.066779598402">
        <ele>0</ele>
        <time>2014-04-01T09:32:35Z</time>
      </trkpt>
      <trkpt lat="59.323848428012" lon="18.066716566514">
        <ele>0</ele>
        <time>2014-04-01T09:32:36Z</time>
      </trkpt>
      <trkpt lat="59.323976754901" lon="18.066608188547">
        <ele>0</ele>
        <time>2014-04-01T09:32:38Z</time>
      </trkpt>
      <trkpt lat="59.324037691314" lon="18.066569715626">
        <ele>0</ele>
        <time>2014-04-01T09:32:39Z</time>
      </trkpt>
      <trkpt lat="59.32421991382" lon="18.066500481132">
        <ele>0</ele>
        <time>2014-04-01T09:32:42Z</time>
      </trkpt>
      <trkpt lat="59.324285376459" lon="18.066522022615">
        <ele>0</ele>
        <time>2014-04-01T09:32:43Z</time>
      </trkpt>
      <trkpt lat="59.324480674729" lon="18.066584383951">
        <ele>0</ele>
        <time>2014-04-01T09:32:46Z</time>
      </trkpt>
      <trkpt lat="59.324547729929" lon="18.066578097526">
        <ele>0</ele>
        <time>2014-04-01T09:32:47Z</time>
      </trkpt>
      <trkpt lat="59.324699609957" lon="18.066523950452">
        <ele>0</ele>
        <time>2014-04-01T09:32:49Z</time>
      </trkpt>
      <trkpt lat="59.324773538315" lon="18.066480448391">
        <ele>0</ele>
        <time>2014-04-01T09:32:50Z</time>
      </trkpt>
      <trkpt lat="59.324848640139" lon="18.066433425932">
        <ele>0</ele>
        <time>2014-04-01T09:32:51Z</time>
      </trkpt>
      <trkpt lat="59.324922652316" lon="18.066369555854">
        <ele>0</ele>
        <time>2014-04-01T09:32:52Z</time>
      </trkpt>
      <trkpt lat="59.324993311733" lon="18.066315492599">
        <ele>0</ele>
        <time>2014-04-01T09:32:53Z</time>
      </trkpt>
      <trkpt lat="59.32512432083" lon="18.066161852372">
        <ele>0</ele>
        <time>2014-04-01T09:32:55Z</time>
      </trkpt>
      <trkpt lat="59.32544870036" lon="18.065647622807">
        <ele>0</ele>
        <time>2014-04-01T09:33:01Z</time>
      </trkpt>
      <trkpt lat="59.325715077142" lon="18.065227354341">
        <ele>0</ele>
        <time>2014-04-01T09:33:06Z</time>
      </trkpt>
      <trkpt lat="59.326105338406" lon="18.064575996892">
        <ele>0</ele>
        <time>2014-04-01T09:33:14Z</time>
      </trkpt>
      <trkpt lat="59.32619385127" lon="18.06445378879">
        <ele>0</ele>
        <time>2014-04-01T09:33:16Z</time>
      </trkpt>
      <trkpt lat="59.326286722722" lon="18.064568453182">
        <ele>0</ele>
        <time>2014-04-01T09:33:18Z</time>
      </trkpt>
      <trkpt lat="59.326379510355" lon="18.06485611999">
        <ele>0</ele>
        <time>2014-04-01T09:33:21Z</time>
      </trkpt>
      <trkpt lat="59.326447319926" lon="18.065027026931">
        <ele>0</ele>
        <time>2014-04-01T09:33:23Z</time>
      </trkpt>
      <trkpt lat="59.326587716751" lon="18.065291475876">
        <ele>0</ele>
        <time>2014-04-01T09:33:27Z</time>
      </trkpt>
      <trkpt lat="59.326712523242" lon="18.065169938326">
        <ele>0</ele>
        <time>2014-04-01T09:33:30Z</time>
      </trkpt>
      <trkpt lat="59.326744625919" lon="18.065098943633">
        <ele>0</ele>
        <time>2014-04-01T09:33:31Z</time>
      </trkpt>
      <trkpt lat="59.326788463256" lon="18.065026440198">
        <ele>0</ele>
        <time>2014-04-01T09:33:32Z</time>
      </trkpt>
      <trkpt lat="59.326829031652" lon="18.064960977559">
        <ele>0</ele>
        <time>2014-04-01T09:33:33Z</time>
      </trkpt>
      <trkpt lat="59.326870522057" lon="18.064895431101">
        <ele>0</ele>
        <time>2014-04-01T09:33:34Z</time>
      </trkpt>
      <trkpt lat="59.327271344515" lon="18.064263771117">
        <ele>0</ele>
        <time>2014-04-01T09:33:43Z</time>
      </trkpt>
      <trkpt lat="59.327578708788" lon="18.063770831578">
        <ele>0</ele>
        <time>2014-04-01T09:33:50Z</time>
      </trkpt>
      <trkpt lat="59.327909961476" lon="18.063237491281">
        <ele>0</ele>
        <time>2014-04-01T09:33:58Z</time>
      </trkpt>
      <trkpt lat="59.328057818192" lon="18.06298695629">
        <ele>0</ele>
        <time>2014-04-01T09:34:02Z</time>
      </trkpt>
      <trkpt lat="59.328108863963" lon="18.062840775954">
        <ele>0</ele>
        <time>2014-04-01T09:34:04Z</time>
      </trkpt>
      <trkpt lat="59.328153455671" lon="18.062689482659">
        <ele>0</ele>
        <time>2014-04-01T09:34:06Z</time>
      </trkpt>
      <trkpt lat="59.328205339632" lon="18.062436516917">
        <ele>0</ele>
        <time>2014-04-01T09:34:09Z</time>
      </trkpt>
      <trkpt lat="59.328218331577" lon="18.062349848071">
        <ele>0</ele>
        <time>2014-04-01T09:34:10Z</time>
      </trkpt>
      <trkpt lat="59.328222438708" lon="18.062256389886">
        <ele>0</ele>
        <time>2014-04-01T09:34:11Z</time>
      </trkpt>
      <trkpt lat="59.328233502816" lon="18.062157399647">
        <ele>0</ele>
        <time>2014-04-01T09:34:12Z</time>
      </trkpt>
      <trkpt lat="59.32824238763" lon="18.062064276738">
        <ele>0</ele>
        <time>2014-04-01T09:34:13Z</time>
      </trkpt>
      <trkpt lat="59.328248003503" lon="18.061964448309">
        <ele>0</ele>
        <time>2014-04-01T09:34:14Z</time>
      </trkpt>
      <trkpt lat="59.328321512766" lon="18.061277551604">
        <ele>0</ele>
        <time>2014-04-01T09:34:31Z</time>
      </trkpt>
      <trkpt lat="59.328389992889" lon="18.061069680484">
        <ele>0</ele>
        <time>2014-04-01T09:34:35Z</time>
      </trkpt>
      <trkpt lat="59.328408768345" lon="18.061016120143">
        <ele>0</ele>
        <time>2014-04-01T09:34:36Z</time>
      </trkpt>
      <trkpt lat="59.328433578769" lon="18.060976473756">
        <ele>0</ele>
        <time>2014-04-01T09:34:37Z</time>
      </trkpt>
      <trkpt lat="59.328454952614" lon="18.060940263948">
        <ele>0</ele>
        <time>2014-04-01T09:34:38Z</time>
      </trkpt>
      <trkpt lat="59.328576993078" lon="18.061071608321">
        <ele>0</ele>
        <time>2014-04-01T09:34:51Z</time>
      </trkpt>
      <trkpt lat="59.328574562327" lon="18.061030201735">
        <ele>0</ele>
        <time>2014-04-01T09:34:52Z</time>
      </trkpt>
      <trkpt lat="59.328684281398" lon="18.061008492614">
        <ele>0</ele>
        <time>2014-04-01T09:34:55Z</time>
      </trkpt>
      <trkpt lat="59.328836496702" lon="18.060928110193">
        <ele>0</ele>
        <time>2014-04-01T09:34:58Z</time>
      </trkpt>
      <trkpt lat="59.32911410523" lon="18.060734153027">
        <ele>0</ele>
        <time>2014-04-01T09:35:03Z</time>
      </trkpt>
      <trkpt lat="59.329339662159" lon="18.060545811734">
        <ele>0</ele>
        <time>2014-04-01T09:35:07Z</time>
      </trkpt>
      <trkpt lat="59.329407387911" lon="18.060496945257">
        <ele>0</ele>
        <time>2014-04-01T09:35:08Z</time>
      </trkpt>
      <trkpt lat="59.3298290813" lon="18.060184635663">
        <ele>0</ele>
        <time>2014-04-01T09:35:15Z</time>
      </trkpt>
      <trkpt lat="59.330155472486" lon="18.059873415716">
        <ele>0</ele>
        <time>2014-04-01T09:35:21Z</time>
      </trkpt>
      <trkpt lat="59.33046275294" lon="18.059574600981">
        <ele>0</ele>
        <time>2014-04-01T09:35:27Z</time>
      </trkpt>
      <trkpt lat="59.330784785538" lon="18.059149806289">
        <ele>0</ele>
        <time>2014-04-01T09:35:34Z</time>
      </trkpt>
      <trkpt lat="59.330836166585" lon="18.059106220409">
        <ele>0</ele>
        <time>2014-04-01T09:35:35Z</time>
      </trkpt>
      <trkpt lat="59.330878746637" lon="18.059059868502">
        <ele>0</ele>
        <time>2014-04-01T09:35:36Z</time>
      </trkpt>
      <trkpt lat="59.330914872626" lon="18.059025586531">
        <ele>0</ele>
        <time>2014-04-01T09:35:37Z</time>
      </trkpt>
      <trkpt lat="59.33095560866" lon="18.058997088071">
        <ele>0</ele>
        <time>2014-04-01T09:35:38Z</time>
      </trkpt>
      <trkpt lat="59.331050240311" lon="18.058931709251">
        <ele>0</ele>
        <time>2014-04-01T09:35:41Z</time>
      </trkpt>
      <trkpt lat="59.331095167295" lon="18.05889994185">
        <ele>0</ele>
        <time>2014-04-01T09:35:43Z</time>
      </trkpt>
      <trkpt lat="59.331200108683" lon="18.058812183357">
        <ele>0</ele>
        <time>2014-04-01T09:35:46Z</time>
      </trkpt>
      <trkpt lat="59.331231121713" lon="18.058758120102">
        <ele>0</ele>
        <time>2014-04-01T09:35:47Z</time>
      </trkpt>
      <trkpt lat="59.33143756791" lon="18.058560223443">
        <ele>0</ele>
        <time>2014-04-01T09:35:51Z</time>
      </trkpt>
      <trkpt lat="59.33145852266" lon="18.058523845997">
        <ele>0</ele>
        <time>2014-04-01T09:35:52Z</time>
      </trkpt>
      <trkpt lat="59.331557931994" lon="18.05836182387">
        <ele>0</ele>
        <time>2014-04-01T09:36:22Z</time>
      </trkpt>
      <trkpt lat="59.331557931994" lon="18.05836182387">
        <ele>0</ele>
        <time>2014-04-01T09:36:24Z</time>
      </trkpt>
      <trkpt lat="59.331632698542" lon="18.058323015673">
        <ele>0</ele>
        <time>2014-04-01T09:36:26Z</time>
      </trkpt>
      <trkpt lat="59.331740322138" lon="18.058273059549">
        <ele>0</ele>
        <time>2014-04-01T09:36:28Z</time>
      </trkpt>
      <trkpt lat="59.331886167198" lon="18.058102152608">
        <ele>0</ele>
        <time>2014-04-01T09:36:31Z</time>
      </trkpt>
      <trkpt lat="59.331923215196" lon="18.058045407145">
        <ele>0</ele>
        <time>2014-04-01T09:36:32Z</time>
      </trkpt>
      <trkpt lat="59.331964957058" lon="18.058034343037">
        <ele>0</ele>
        <time>2014-04-01T09:36:33Z</time>
      </trkpt>
      <trkpt lat="59.332095044146" lon="18.057897131334">
        <ele>0</ele>
        <time>2014-04-01T09:36:36Z</time>
      </trkpt>
      <trkpt lat="59.332179533698" lon="18.057815575447">
        <ele>0</ele>
        <time>2014-04-01T09:36:38Z</time>
      </trkpt>
      <trkpt lat="59.33221289366" lon="18.057772492481">
        <ele>0</ele>
        <time>2014-04-01T09:36:39Z</time>
      </trkpt>
      <trkpt lat="59.332252120952" lon="18.057737623777">
        <ele>0</ele>
        <time>2014-04-01T09:36:40Z</time>
      </trkpt>
      <trkpt lat="59.332286486742" lon="18.057702671254">
        <ele>0</ele>
        <time>2014-04-01T09:36:41Z</time>
      </trkpt>
      <trkpt lat="59.332393355967" lon="18.05762337848">
        <ele>0</ele>
        <time>2014-04-01T09:36:44Z</time>
      </trkpt>
      <trkpt lat="59.332504248504" lon="18.057707113661">
        <ele>0</ele>
        <time>2014-04-01T09:36:48Z</time>
      </trkpt>
      <trkpt lat="59.332555210456" lon="18.057943483241">
        <ele>0</ele>
        <time>2014-04-01T09:36:52Z</time>
      </trkpt>
      <trkpt lat="59.33267725092" lon="18.058213715697">
        <ele>0</ele>
        <time>2014-04-01T09:36:58Z</time>
      </trkpt>
      <trkpt lat="59.33275017345" lon="18.058358219653">
        <ele>0</ele>
        <time>2014-04-01T09:37:01Z</time>
      </trkpt>
      <trkpt lat="59.332798117918" lon="18.058451929295">
        <ele>0</ele>
        <time>2014-04-01T09:37:03Z</time>
      </trkpt>
    </trkseg>
  </trk>
</gpx>